sensor_id;sensor_type;location;lat;lon;timestamp;P1;durP1;ratioP1;P2;durP2;ratioP2
2019;SDS011;1014;51.960;8.542;2023-01-13T00:02:16;54.50;;;51.60;;
2019;SDS011;1014;51.960;8.542;2023-01-13T00:04:43;58.50;;;55.20;;
2019;SDS011;1014;51.960;8.542;2023-01-13T00:07:10;57.83;;;54.60;;
2019;SDS011;1014;51.960;8.542;2023-01-13T00:09:38;63.67;;;60.17;;
2019;SDS011;1014;51.960;8.542;2023-01-13T00:12:05;65.83;;;62.23;;
2019;SDS011;1014;51.960;8.542;2023-01-13T00:14:32;61.57;;;58.27;;
2019;SDS011;1014;51.960;8.542;2023-01-13T00:16:59;59.40;;;56.07;;
2019;SDS011;1014;51.960;8.542;2023-01-13T00:19:26;66.13;;;62.53;;
2019;SDS011;1014;51.960;8.542;2023-01-13T00:21:53;65.90;;;62.30;;
2019;SDS011;1014;51.960;8.542;2023-01-13T00:24:20;61.33;;;57.53;;
2019;SDS011;1014;51.960;8.542;2023-01-13T00:26:49;57.77;;;54.57;;
2019;SDS011;1014;51.960;8.542;2023-01-13T00:29:16;56.60;;;53.47;;
2019;SDS011;1014;51.960;8.542;2023-01-13T00:31:43;54.73;;;51.83;;
2019;SDS011;1014;51.960;8.542;2023-01-13T00:34:10;57.70;;;54.60;;
2019;SDS011;1014;51.960;8.542;2023-01-13T00:36:37;56.30;;;53.30;;
2019;SDS011;1014;51.960;8.542;2023-01-13T00:39:04;54.47;;;51.47;;
2019;SDS011;1014;51.960;8.542;2023-01-13T00:41:31;54.67;;;51.57;;
2019;SDS011;1014;51.960;8.542;2023-01-13T00:44:29;54.50;;;51.50;;
2019;SDS011;1014;51.960;8.542;2023-01-13T00:46:55;57.70;;;54.53;;
2019;SDS011;1014;51.960;8.542;2023-01-13T00:49:22;58.03;;;54.73;;
2019;SDS011;1014;51.960;8.542;2023-01-13T00:51:49;55.00;;;52.00;;
2019;SDS011;1014;51.960;8.542;2023-01-13T00:54:16;54.53;;;51.63;;
2019;SDS011;1014;51.960;8.542;2023-01-13T00:56:43;57.30;;;54.30;;
2019;SDS011;1014;51.960;8.542;2023-01-13T00:59:11;54.03;;;51.03;;
2019;SDS011;1014;51.960;8.542;2023-01-13T01:01:39;54.50;;;51.43;;
2019;SDS011;1014;51.960;8.542;2023-01-13T01:04:07;54.67;;;51.73;;
2019;SDS011;1014;51.960;8.542;2023-01-13T01:06:35;44.20;;;41.70;;
2019;SDS011;1014;51.960;8.542;2023-01-13T01:09:02;49.60;;;46.77;;
2019;SDS011;1014;51.960;8.542;2023-01-13T01:11:30;47.37;;;44.77;;
2019;SDS011;1014;51.960;8.542;2023-01-13T01:13:58;47.60;;;44.47;;
2019;SDS011;1014;51.960;8.542;2023-01-13T01:16:26;49.23;;;46.53;;
2019;SDS011;1014;51.960;8.542;2023-01-13T01:18:54;48.90;;;46.30;;
2019;SDS011;1014;51.960;8.542;2023-01-13T01:21:22;46.57;;;44.07;;
2019;SDS011;1014;51.960;8.542;2023-01-13T01:23:49;45.37;;;43.07;;
2019;SDS011;1014;51.960;8.542;2023-01-13T01:26:18;42.20;;;40.10;;
2019;SDS011;1014;51.960;8.542;2023-01-13T01:28:45;42.77;;;40.37;;
2019;SDS011;1014;51.960;8.542;2023-01-13T01:31:13;43.43;;;40.90;;
2019;SDS011;1014;51.960;8.542;2023-01-13T01:33:40;40.40;;;38.20;;
2019;SDS011;1014;51.960;8.542;2023-01-13T01:36:13;40.33;;;37.93;;
2019;SDS011;1014;51.960;8.542;2023-01-13T01:38:40;36.93;;;35.03;;
2019;SDS011;1014;51.960;8.542;2023-01-13T01:41:08;39.57;;;37.47;;
2019;SDS011;1014;51.960;8.542;2023-01-13T01:43:46;39.23;;;37.23;;
2019;SDS011;1014;51.960;8.542;2023-01-13T01:46:27;41.07;;;38.83;;
2019;SDS011;1014;51.960;8.542;2023-01-13T01:48:55;37.80;;;35.90;;
2019;SDS011;1014;51.960;8.542;2023-01-13T01:51:25;36.73;;;34.70;;
2019;SDS011;1014;51.960;8.542;2023-01-13T01:53:53;36.90;;;34.93;;
2019;SDS011;1014;51.960;8.542;2023-01-13T01:56:22;37.43;;;35.33;;
2019;SDS011;1014;51.960;8.542;2023-01-13T01:58:49;39.20;;;37.03;;
2019;SDS011;1014;51.960;8.542;2023-01-13T02:01:17;39.30;;;36.93;;
2019;SDS011;1014;51.960;8.542;2023-01-13T02:03:45;39.77;;;37.67;;
2019;SDS011;1014;51.960;8.542;2023-01-13T02:06:15;38.13;;;36.13;;
2019;SDS011;1014;51.960;8.542;2023-01-13T02:08:44;39.30;;;37.20;;
2019;SDS011;1014;51.960;8.542;2023-01-13T02:11:28;39.93;;;37.83;;
2019;SDS011;1014;51.960;8.542;2023-01-13T02:14:13;36.70;;;34.77;;
2019;SDS011;1014;51.960;8.542;2023-01-13T02:16:41;38.87;;;36.70;;
2019;SDS011;1014;51.960;8.542;2023-01-13T02:19:13;39.70;;;37.60;;
2019;SDS011;1014;51.960;8.542;2023-01-13T02:22:03;41.20;;;39.10;;
2019;SDS011;1014;51.960;8.542;2023-01-13T02:24:42;36.73;;;34.80;;
2019;SDS011;1014;51.960;8.542;2023-01-13T02:27:28;36.40;;;34.53;;
2019;SDS011;1014;51.960;8.542;2023-01-13T02:30:05;36.70;;;34.30;;
2019;SDS011;1014;51.960;8.542;2023-01-13T02:32:55;37.90;;;35.40;;
2019;SDS011;1014;51.960;8.542;2023-01-13T02:35:26;35.40;;;33.37;;
2019;SDS011;1014;51.960;8.542;2023-01-13T02:37:53;34.37;;;32.57;;
2019;SDS011;1014;51.960;8.542;2023-01-13T02:40:23;36.93;;;34.90;;
2019;SDS011;1014;51.960;8.542;2023-01-13T02:42:52;35.77;;;33.80;;
2019;SDS011;1014;51.960;8.542;2023-01-13T02:45:56;35.77;;;33.73;;
2019;SDS011;1014;51.960;8.542;2023-01-13T02:48:24;36.37;;;34.40;;
2019;SDS011;1014;51.960;8.542;2023-01-13T02:50:54;34.03;;;32.23;;
2019;SDS011;1014;51.960;8.542;2023-01-13T02:53:24;33.33;;;31.27;;
2019;SDS011;1014;51.960;8.542;2023-01-13T02:55:53;30.77;;;28.37;;
2019;SDS011;1014;51.960;8.542;2023-01-13T02:58:23;26.37;;;24.80;;
2019;SDS011;1014;51.960;8.542;2023-01-13T03:00:51;25.33;;;23.63;;
2019;SDS011;1014;51.960;8.542;2023-01-13T03:03:20;24.87;;;23.17;;
2019;SDS011;1014;51.960;8.542;2023-01-13T03:05:47;25.07;;;23.60;;
2019;SDS011;1014;51.960;8.542;2023-01-13T03:08:18;26.33;;;23.83;;
2019;SDS011;1014;51.960;8.542;2023-01-13T03:10:51;24.50;;;22.70;;
2019;SDS011;1014;51.960;8.542;2023-01-13T03:13:29;25.37;;;23.03;;
2019;SDS011;1014;51.960;8.542;2023-01-13T03:16:02;25.87;;;23.47;;
2019;SDS011;1014;51.960;8.542;2023-01-13T03:18:36;23.60;;;22.27;;
2019;SDS011;1014;51.960;8.542;2023-01-13T03:21:05;24.23;;;22.13;;
2019;SDS011;1014;51.960;8.542;2023-01-13T03:23:34;24.83;;;22.90;;
2019;SDS011;1014;51.960;8.542;2023-01-13T03:26:05;25.70;;;23.27;;
2019;SDS011;1014;51.960;8.542;2023-01-13T03:28:35;24.30;;;22.60;;
2019;SDS011;1014;51.960;8.542;2023-01-13T03:31:06;24.33;;;22.10;;
2019;SDS011;1014;51.960;8.542;2023-01-13T03:33:38;25.13;;;23.00;;
2019;SDS011;1014;51.960;8.542;2023-01-13T03:36:09;22.83;;;21.63;;
2019;SDS011;1014;51.960;8.542;2023-01-13T03:38:39;24.00;;;22.27;;
2019;SDS011;1014;51.960;8.542;2023-01-13T03:41:08;25.67;;;24.05;;
2019;SDS011;1014;51.960;8.542;2023-01-13T03:43:37;23.45;;;21.77;;
2019;SDS011;1014;51.960;8.542;2023-01-13T03:46:26;25.47;;;24.07;;
2019;SDS011;1014;51.960;8.542;2023-01-13T03:48:56;24.77;;;23.40;;
2019;SDS011;1014;51.960;8.542;2023-01-13T03:51:26;25.03;;;23.43;;
2019;SDS011;1014;51.960;8.542;2023-01-13T03:53:55;26.13;;;24.10;;
2019;SDS011;1014;51.960;8.542;2023-01-13T03:56:25;26.97;;;25.00;;
2019;SDS011;1014;51.960;8.542;2023-01-13T03:58:53;24.63;;;23.10;;
2019;SDS011;1014;51.960;8.542;2023-01-13T04:01:21;31.37;;;29.00;;
2019;SDS011;1014;51.960;8.542;2023-01-13T04:03:51;29.40;;;26.70;;
2019;SDS011;1014;51.960;8.542;2023-01-13T04:06:22;33.17;;;30.63;;
2019;SDS011;1014;51.960;8.542;2023-01-13T04:08:51;25.57;;;23.70;;
2019;SDS011;1014;51.960;8.542;2023-01-13T04:11:23;27.17;;;24.53;;
2019;SDS011;1014;51.960;8.542;2023-01-13T04:13:53;24.60;;;23.00;;
2019;SDS011;1014;51.960;8.542;2023-01-13T04:16:24;25.60;;;23.33;;
2019;SDS011;1014;51.960;8.542;2023-01-13T04:18:51;25.00;;;23.23;;
2019;SDS011;1014;51.960;8.542;2023-01-13T04:21:18;21.80;;;20.40;;
2019;SDS011;1014;51.960;8.542;2023-01-13T04:23:46;23.00;;;21.07;;
2019;SDS011;1014;51.960;8.542;2023-01-13T04:26:15;21.63;;;20.00;;
2019;SDS011;1014;51.960;8.542;2023-01-13T04:28:43;21.20;;;19.80;;
2019;SDS011;1014;51.960;8.542;2023-01-13T04:31:10;19.60;;;18.37;;
2019;SDS011;1014;51.960;8.542;2023-01-13T04:33:37;22.70;;;20.60;;
2019;SDS011;1014;51.960;8.542;2023-01-13T04:36:04;22.77;;;21.27;;
2019;SDS011;1014;51.960;8.542;2023-01-13T04:38:31;23.50;;;21.43;;
2019;SDS011;1014;51.960;8.542;2023-01-13T04:41:00;28.93;;;21.90;;
2019;SDS011;1014;51.960;8.542;2023-01-13T04:43:27;22.13;;;20.63;;
2019;SDS011;1014;51.960;8.542;2023-01-13T04:45:54;22.33;;;20.37;;
2019;SDS011;1014;51.960;8.542;2023-01-13T04:48:21;23.03;;;20.77;;
2019;SDS011;1014;51.960;8.542;2023-01-13T04:50:48;22.80;;;20.80;;
2019;SDS011;1014;51.960;8.542;2023-01-13T04:53:15;22.00;;;20.40;;
2019;SDS011;1014;51.960;8.542;2023-01-13T04:55:42;22.87;;;20.47;;
2019;SDS011;1014;51.960;8.542;2023-01-13T04:58:13;22.83;;;21.33;;
2019;SDS011;1014;51.960;8.542;2023-01-13T05:00:40;23.83;;;20.63;;
2019;SDS011;1014;51.960;8.542;2023-01-13T05:03:07;20.97;;;19.40;;
2019;SDS011;1014;51.960;8.542;2023-01-13T05:05:34;21.40;;;19.80;;
2019;SDS011;1014;51.960;8.542;2023-01-13T05:08:02;21.57;;;20.00;;
2019;SDS011;1014;51.960;8.542;2023-01-13T05:10:29;19.87;;;18.77;;
2019;SDS011;1014;51.960;8.542;2023-01-13T05:12:56;25.17;;;20.80;;
2019;SDS011;1014;51.960;8.542;2023-01-13T05:15:42;20.67;;;19.27;;
2019;SDS011;1014;51.960;8.542;2023-01-13T05:18:27;20.80;;;19.60;;
2019;SDS011;1014;51.960;8.542;2023-01-13T05:20:55;20.27;;;18.97;;
2019;SDS011;1014;51.960;8.542;2023-01-13T05:23:22;22.40;;;20.27;;
2019;SDS011;1014;51.960;8.542;2023-01-13T05:26:07;22.03;;;19.97;;
2019;SDS011;1014;51.960;8.542;2023-01-13T05:28:35;20.10;;;18.90;;
2019;SDS011;1014;51.960;8.542;2023-01-13T05:31:03;21.03;;;19.20;;
2019;SDS011;1014;51.960;8.542;2023-01-13T05:33:30;21.67;;;19.93;;
2019;SDS011;1014;51.960;8.542;2023-01-13T05:36:00;21.53;;;19.67;;
2019;SDS011;1014;51.960;8.542;2023-01-13T05:38:27;20.13;;;18.93;;
2019;SDS011;1014;51.960;8.542;2023-01-13T05:40:54;19.77;;;18.40;;
2019;SDS011;1014;51.960;8.542;2023-01-13T05:43:42;19.23;;;18.23;;
2019;SDS011;1014;51.960;8.542;2023-01-13T05:46:10;21.23;;;19.50;;
2019;SDS011;1014;51.960;8.542;2023-01-13T05:48:39;19.03;;;17.93;;
2019;SDS011;1014;51.960;8.542;2023-01-13T05:51:07;20.20;;;18.80;;
2019;SDS011;1014;51.960;8.542;2023-01-13T05:53:34;18.97;;;17.77;;
2019;SDS011;1014;51.960;8.542;2023-01-13T05:56:02;20.30;;;19.03;;
2019;SDS011;1014;51.960;8.542;2023-01-13T05:58:29;18.70;;;17.70;;
2019;SDS011;1014;51.960;8.542;2023-01-13T06:00:58;26.13;;;20.13;;
2019;SDS011;1014;51.960;8.542;2023-01-13T06:03:26;19.42;;;18.40;;
2019;SDS011;1014;51.960;8.542;2023-01-13T06:05:53;20.07;;;18.87;;
2019;SDS011;1014;51.960;8.542;2023-01-13T06:08:23;18.57;;;17.57;;
2019;SDS011;1014;51.960;8.542;2023-01-13T06:10:50;20.97;;;19.60;;
2019;SDS011;1014;51.960;8.542;2023-01-13T06:13:17;19.43;;;18.43;;
2019;SDS011;1014;51.960;8.542;2023-01-13T06:15:44;20.30;;;18.47;;
2019;SDS011;1014;51.960;8.542;2023-01-13T06:18:11;18.70;;;17.77;;
2019;SDS011;1014;51.960;8.542;2023-01-13T06:20:40;20.10;;;18.70;;
2019;SDS011;1014;51.960;8.542;2023-01-13T06:23:07;19.57;;;18.37;;
2019;SDS011;1014;51.960;8.542;2023-01-13T06:25:36;19.60;;;18.40;;
2019;SDS011;1014;51.960;8.542;2023-01-13T06:28:05;19.80;;;18.43;;
2019;SDS011;1014;51.960;8.542;2023-01-13T06:30:34;20.43;;;19.00;;
2019;SDS011;1014;51.960;8.542;2023-01-13T06:33:03;20.93;;;19.10;;
2019;SDS011;1014;51.960;8.542;2023-01-13T06:35:33;19.87;;;18.33;;
2019;SDS011;1014;51.960;8.542;2023-01-13T06:38:02;19.63;;;18.63;;
2019;SDS011;1014;51.960;8.542;2023-01-13T06:40:30;20.83;;;19.50;;
2019;SDS011;1014;51.960;8.542;2023-01-13T06:42:58;20.57;;;19.30;;
2019;SDS011;1014;51.960;8.542;2023-01-13T06:45:39;21.93;;;19.93;;
2019;SDS011;1014;51.960;8.542;2023-01-13T06:48:06;21.43;;;19.60;;
2019;SDS011;1014;51.960;8.542;2023-01-13T06:50:33;20.50;;;19.27;;
2019;SDS011;1014;51.960;8.542;2023-01-13T06:53:02;19.07;;;18.17;;
2019;SDS011;1014;51.960;8.542;2023-01-13T06:55:29;20.80;;;19.30;;
2019;SDS011;1014;51.960;8.542;2023-01-13T06:57:56;20.93;;;19.50;;
2019;SDS011;1014;51.960;8.542;2023-01-13T07:00:24;20.43;;;19.10;;
2019;SDS011;1014;51.960;8.542;2023-01-13T07:02:51;19.20;;;17.80;;
2019;SDS011;1014;51.960;8.542;2023-01-13T07:05:18;20.40;;;18.57;;
2019;SDS011;1014;51.960;8.542;2023-01-13T07:07:45;19.50;;;17.93;;
2019;SDS011;1014;51.960;8.542;2023-01-13T07:10:14;22.40;;;19.23;;
2019;SDS011;1014;51.960;8.542;2023-01-13T07:12:46;19.77;;;18.47;;
2019;SDS011;1014;51.960;8.542;2023-01-13T07:15:31;21.03;;;19.30;;
2019;SDS011;1014;51.960;8.542;2023-01-13T07:17:58;20.20;;;19.00;;
2019;SDS011;1014;51.960;8.542;2023-01-13T07:20:25;20.73;;;19.00;;
2019;SDS011;1014;51.960;8.542;2023-01-13T07:22:52;20.30;;;18.87;;
2019;SDS011;1014;51.960;8.542;2023-01-13T07:25:21;20.47;;;19.17;;
2019;SDS011;1014;51.960;8.542;2023-01-13T07:27:48;21.27;;;19.87;;
2019;SDS011;1014;51.960;8.542;2023-01-13T07:30:15;21.17;;;19.87;;
2019;SDS011;1014;51.960;8.542;2023-01-13T07:32:42;20.63;;;19.27;;
2019;SDS011;1014;51.960;8.542;2023-01-13T07:35:09;18.37;;;17.30;;
2019;SDS011;1014;51.960;8.542;2023-01-13T07:37:36;17.73;;;16.83;;
2019;SDS011;1014;51.960;8.542;2023-01-13T07:40:04;19.67;;;18.33;;
2019;SDS011;1014;51.960;8.542;2023-01-13T07:42:33;18.90;;;17.80;;
2019;SDS011;1014;51.960;8.542;2023-01-13T07:45:20;19.53;;;18.07;;
2019;SDS011;1014;51.960;8.542;2023-01-13T07:47:49;18.67;;;17.60;;
2019;SDS011;1014;51.960;8.542;2023-01-13T07:50:16;21.13;;;19.13;;
2019;SDS011;1014;51.960;8.542;2023-01-13T07:52:45;18.93;;;17.40;;
2019;SDS011;1014;51.960;8.542;2023-01-13T07:55:12;19.03;;;17.83;;
2019;SDS011;1014;51.960;8.542;2023-01-13T07:57:40;18.67;;;17.40;;
2019;SDS011;1014;51.960;8.542;2023-01-13T08:00:08;18.33;;;17.27;;
2019;SDS011;1014;51.960;8.542;2023-01-13T08:02:35;19.70;;;17.97;;
2019;SDS011;1014;51.960;8.542;2023-01-13T08:05:02;19.37;;;18.10;;
2019;SDS011;1014;51.960;8.542;2023-01-13T08:07:29;18.60;;;17.50;;
2019;SDS011;1014;51.960;8.542;2023-01-13T08:09:56;20.47;;;19.07;;
2019;SDS011;1014;51.960;8.542;2023-01-13T08:12:23;19.97;;;18.60;;
2019;SDS011;1014;51.960;8.542;2023-01-13T08:15:10;18.53;;;17.40;;
2019;SDS011;1014;51.960;8.542;2023-01-13T08:17:37;19.83;;;18.20;;
2019;SDS011;1014;51.960;8.542;2023-01-13T08:20:04;19.50;;;18.00;;
2019;SDS011;1014;51.960;8.542;2023-01-13T08:22:31;19.57;;;17.93;;
2019;SDS011;1014;51.960;8.542;2023-01-13T08:24:58;18.43;;;17.23;;
2019;SDS011;1014;51.960;8.542;2023-01-13T08:27:25;20.90;;;18.93;;
2019;SDS011;1014;51.960;8.542;2023-01-13T08:29:52;19.13;;;18.00;;
2019;SDS011;1014;51.960;8.542;2023-01-13T08:32:21;20.60;;;19.20;;
2019;SDS011;1014;51.960;8.542;2023-01-13T08:34:48;19.47;;;17.97;;
2019;SDS011;1014;51.960;8.542;2023-01-13T08:37:15;20.27;;;18.73;;
2019;SDS011;1014;51.960;8.542;2023-01-13T08:39:42;20.47;;;19.10;;
2019;SDS011;1014;51.960;8.542;2023-01-13T08:42:09;20.80;;;19.17;;
2019;SDS011;1014;51.960;8.542;2023-01-13T08:44:36;20.80;;;19.40;;
2019;SDS011;1014;51.960;8.542;2023-01-13T08:47:03;20.37;;;18.50;;
2019;SDS011;1014;51.960;8.542;2023-01-13T08:49:31;20.37;;;19.23;;
2019;SDS011;1014;51.960;8.542;2023-01-13T08:51:58;21.80;;;19.83;;
2019;SDS011;1014;51.960;8.542;2023-01-13T08:54:25;20.40;;;18.80;;
2019;SDS011;1014;51.960;8.542;2023-01-13T08:56:52;20.63;;;19.07;;
2019;SDS011;1014;51.960;8.542;2023-01-13T08:59:19;21.00;;;19.47;;
2019;SDS011;1014;51.960;8.542;2023-01-13T09:01:46;20.77;;;19.40;;
2019;SDS011;1014;51.960;8.542;2023-01-13T09:04:14;20.90;;;19.30;;
2019;SDS011;1014;51.960;8.542;2023-01-13T09:06:43;19.60;;;18.40;;
2019;SDS011;1014;51.960;8.542;2023-01-13T09:09:11;19.73;;;18.13;;
2019;SDS011;1014;51.960;8.542;2023-01-13T09:11:40;21.17;;;19.67;;
2019;SDS011;1014;51.960;8.542;2023-01-13T09:14:26;20.57;;;19.17;;
2019;SDS011;1014;51.960;8.542;2023-01-13T09:16:53;22.43;;;20.50;;
2019;SDS011;1014;51.960;8.542;2023-01-13T09:19:20;22.30;;;20.60;;
2019;SDS011;1014;51.960;8.542;2023-01-13T09:21:48;20.00;;;18.80;;
2019;SDS011;1014;51.960;8.542;2023-01-13T09:24:16;21.27;;;19.77;;
2019;SDS011;1014;51.960;8.542;2023-01-13T09:26:43;20.80;;;19.27;;
2019;SDS011;1014;51.960;8.542;2023-01-13T09:29:10;21.07;;;19.77;;
2019;SDS011;1014;51.960;8.542;2023-01-13T09:31:37;22.10;;;20.03;;
2019;SDS011;1014;51.960;8.542;2023-01-13T09:34:05;20.53;;;19.00;;
2019;SDS011;1014;51.960;8.542;2023-01-13T09:36:51;21.93;;;19.80;;
2019;SDS011;1014;51.960;8.542;2023-01-13T09:39:18;21.10;;;19.57;;
2019;SDS011;1014;51.960;8.542;2023-01-13T09:41:46;20.43;;;18.93;;
2019;SDS011;1014;51.960;8.542;2023-01-13T09:44:36;21.10;;;19.17;;
2019;SDS011;1014;51.960;8.542;2023-01-13T09:47:06;20.67;;;19.00;;
2019;SDS011;1014;51.960;8.542;2023-01-13T09:49:35;20.70;;;19.00;;
2019;SDS011;1014;51.960;8.542;2023-01-13T09:52:05;20.67;;;19.23;;
2019;SDS011;1014;51.960;8.542;2023-01-13T09:54:36;20.10;;;18.63;;
2019;SDS011;1014;51.960;8.542;2023-01-13T09:57:06;19.93;;;18.73;;
2019;SDS011;1014;51.960;8.542;2023-01-13T09:59:34;19.47;;;18.27;;
2019;SDS011;1014;51.960;8.542;2023-01-13T10:02:03;20.43;;;18.73;;
2019;SDS011;1014;51.960;8.542;2023-01-13T10:04:36;20.40;;;18.83;;
2019;SDS011;1014;51.960;8.542;2023-01-13T10:07:05;19.93;;;18.63;;
2019;SDS011;1014;51.960;8.542;2023-01-13T10:09:41;20.80;;;19.30;;
2019;SDS011;1014;51.960;8.542;2023-01-13T10:12:10;20.13;;;18.93;;
2019;SDS011;1014;51.960;8.542;2023-01-13T10:14:58;22.00;;;20.30;;
2019;SDS011;1014;51.960;8.542;2023-01-13T10:17:27;19.60;;;18.40;;
2019;SDS011;1014;51.960;8.542;2023-01-13T10:19:56;19.77;;;18.57;;
2019;SDS011;1014;51.960;8.542;2023-01-13T10:22:30;19.70;;;18.40;;
2019;SDS011;1014;51.960;8.542;2023-01-13T10:25:12;20.47;;;18.90;;
2019;SDS011;1014;51.960;8.542;2023-01-13T10:27:44;20.23;;;18.90;;
2019;SDS011;1014;51.960;8.542;2023-01-13T10:30:18;21.27;;;19.60;;
2019;SDS011;1014;51.960;8.542;2023-01-13T10:32:46;21.80;;;19.97;;
2019;SDS011;1014;51.960;8.542;2023-01-13T10:35:15;20.53;;;19.30;;
2019;SDS011;1014;51.960;8.542;2023-01-13T10:37:50;20.40;;;18.90;;
2019;SDS011;1014;51.960;8.542;2023-01-13T10:40:21;19.50;;;18.37;;
2019;SDS011;1014;51.960;8.542;2023-01-13T10:42:51;22.07;;;19.97;;
2019;SDS011;1014;51.960;8.542;2023-01-13T10:45:30;20.80;;;19.30;;
2019;SDS011;1014;51.960;8.542;2023-01-13T10:48:04;21.97;;;20.27;;
2019;SDS011;1014;51.960;8.542;2023-01-13T10:50:33;21.37;;;19.80;;
2019;SDS011;1014;51.960;8.542;2023-01-13T10:53:05;20.13;;;18.77;;
2019;SDS011;1014;51.960;8.542;2023-01-13T10:55:41;20.60;;;19.00;;
2019;SDS011;1014;51.960;8.542;2023-01-13T10:58:11;20.07;;;18.60;;
2019;SDS011;1014;51.960;8.542;2023-01-13T11:00:39;20.67;;;18.90;;
2019;SDS011;1014;51.960;8.542;2023-01-13T11:03:11;20.93;;;19.57;;
2019;SDS011;1014;51.960;8.542;2023-01-13T11:05:40;20.10;;;18.60;;
2019;SDS011;1014;51.960;8.542;2023-01-13T11:08:16;20.60;;;19.20;;
2019;SDS011;1014;51.960;8.542;2023-01-13T11:10:44;20.20;;;19.00;;
2019;SDS011;1014;51.960;8.542;2023-01-13T11:13:13;20.73;;;19.23;;
2019;SDS011;1014;51.960;8.542;2023-01-13T11:15:42;20.00;;;18.53;;
2019;SDS011;1014;51.960;8.542;2023-01-13T11:18:13;20.50;;;19.20;;
2019;SDS011;1014;51.960;8.542;2023-01-13T11:20:42;21.60;;;19.90;;
2019;SDS011;1014;51.960;8.542;2023-01-13T11:23:12;22.10;;;19.80;;
2019;SDS011;1014;51.960;8.542;2023-01-13T11:25:43;18.43;;;17.43;;
2019;SDS011;1014;51.960;8.542;2023-01-13T11:28:15;18.83;;;17.53;;
2019;SDS011;1014;51.960;8.542;2023-01-13T11:30:46;21.30;;;19.40;;
2019;SDS011;1014;51.960;8.542;2023-01-13T11:33:19;19.43;;;18.13;;
2019;SDS011;1014;51.960;8.542;2023-01-13T11:35:54;18.63;;;17.47;;
2019;SDS011;1014;51.960;8.542;2023-01-13T11:38:25;19.27;;;17.97;;
2019;SDS011;1014;51.960;8.542;2023-01-13T11:40:55;19.63;;;18.33;;
2019;SDS011;1014;51.960;8.542;2023-01-13T11:43:25;20.80;;;19.20;;
2019;SDS011;1014;51.960;8.542;2023-01-13T11:45:55;20.47;;;19.17;;
2019;SDS011;1014;51.960;8.542;2023-01-13T11:48:24;21.73;;;19.80;;
2019;SDS011;1014;51.960;8.542;2023-01-13T11:50:53;21.70;;;19.80;;
2019;SDS011;1014;51.960;8.542;2023-01-13T11:53:33;20.90;;;19.20;;
2019;SDS011;1014;51.960;8.542;2023-01-13T11:56:15;21.63;;;19.47;;
2019;SDS011;1014;51.960;8.542;2023-01-13T12:01:39;21.00;;;19.30;;
2019;SDS011;1014;51.960;8.542;2023-01-13T12:04:19;21.93;;;19.27;;
2019;SDS011;1014;51.960;8.542;2023-01-13T12:06:47;21.13;;;18.97;;
2019;SDS011;1014;51.960;8.542;2023-01-13T12:09:21;22.27;;;20.00;;
2019;SDS011;1014;51.960;8.542;2023-01-13T12:11:55;19.63;;;18.53;;
2019;SDS011;1014;51.960;8.542;2023-01-13T12:14:45;21.53;;;19.80;;
2019;SDS011;1014;51.960;8.542;2023-01-13T12:17:16;20.00;;;18.40;;
2019;SDS011;1014;51.960;8.542;2023-01-13T12:19:46;20.30;;;18.70;;
2019;SDS011;1014;51.960;8.542;2023-01-13T12:22:15;21.40;;;19.60;;
2019;SDS011;1014;51.960;8.542;2023-01-13T12:24:45;21.23;;;19.50;;
2019;SDS011;1014;51.960;8.542;2023-01-13T12:27:17;21.97;;;20.00;;
2019;SDS011;1014;51.960;8.542;2023-01-13T12:29:44;20.50;;;19.20;;
2019;SDS011;1014;51.960;8.542;2023-01-13T12:32:13;20.83;;;19.23;;
2019;SDS011;1014;51.960;8.542;2023-01-13T12:34:47;19.70;;;18.40;;
2019;SDS011;1014;51.960;8.542;2023-01-13T12:37:16;19.83;;;18.50;;
2019;SDS011;1014;51.960;8.542;2023-01-13T12:39:52;23.47;;;21.03;;
2019;SDS011;1014;51.960;8.542;2023-01-13T12:42:26;18.43;;;17.43;;
2019;SDS011;1014;51.960;8.542;2023-01-13T12:45:18;22.10;;;20.20;;
2019;SDS011;1014;51.960;8.542;2023-01-13T12:47:46;20.83;;;19.03;;
2019;SDS011;1014;51.960;8.542;2023-01-13T12:53:00;20.83;;;19.53;;
2019;SDS011;1014;51.960;8.542;2023-01-13T12:55:50;20.17;;;19.00;;
2019;SDS011;1014;51.960;8.542;2023-01-13T12:58:21;21.43;;;19.87;;
2019;SDS011;1014;51.960;8.542;2023-01-13T13:00:58;19.50;;;18.40;;
2019;SDS011;1014;51.960;8.542;2023-01-13T13:03:27;22.93;;;20.70;;
2019;SDS011;1014;51.960;8.542;2023-01-13T13:05:55;21.53;;;20.00;;
2019;SDS011;1014;51.960;8.542;2023-01-13T13:08:25;20.77;;;19.40;;
2019;SDS011;1014;51.960;8.542;2023-01-13T13:11:13;20.43;;;19.10;;
2019;SDS011;1014;51.960;8.542;2023-01-13T13:14:10;22.13;;;19.00;;
2019;SDS011;1014;51.960;8.542;2023-01-13T13:19:41;20.93;;;19.30;;
2019;SDS011;1014;51.960;8.542;2023-01-13T13:27:47;18.80;;;17.90;;
2019;SDS011;1014;51.960;8.542;2023-01-13T13:30:17;22.07;;;20.03;;
2019;SDS011;1014;51.960;8.542;2023-01-13T13:33:00;19.07;;;17.47;;
2019;SDS011;1014;51.960;8.542;2023-01-13T13:35:38;18.87;;;17.87;;
2019;SDS011;1014;51.960;8.542;2023-01-13T13:38:13;19.87;;;18.67;;
2019;SDS011;1014;51.960;8.542;2023-01-13T13:41:03;20.30;;;19.10;;
2019;SDS011;1014;51.960;8.542;2023-01-13T13:43:50;19.97;;;18.33;;
2019;SDS011;1014;51.960;8.542;2023-01-13T13:46:42;19.73;;;18.40;;
2019;SDS011;1014;51.960;8.542;2023-01-13T13:49:13;19.87;;;18.40;;
2019;SDS011;1014;51.960;8.542;2023-01-13T13:51:42;19.50;;;18.20;;
2019;SDS011;1014;51.960;8.542;2023-01-13T13:54:10;19.93;;;18.50;;
2019;SDS011;1014;51.960;8.542;2023-01-13T13:56:40;20.97;;;19.33;;
2019;SDS011;1014;51.960;8.542;2023-01-13T13:59:10;19.30;;;18.00;;
2019;SDS011;1014;51.960;8.542;2023-01-13T14:01:39;20.40;;;19.27;;
2019;SDS011;1014;51.960;8.542;2023-01-13T14:04:10;20.37;;;18.83;;
2019;SDS011;1014;51.960;8.542;2023-01-13T14:06:47;22.33;;;20.40;;
2019;SDS011;1014;51.960;8.542;2023-01-13T14:09:15;18.77;;;17.77;;
2019;SDS011;1014;51.960;8.542;2023-01-13T14:11:43;20.07;;;18.53;;
2019;SDS011;1014;51.960;8.542;2023-01-13T14:14:20;20.80;;;19.03;;
2019;SDS011;1014;51.960;8.542;2023-01-13T14:16:48;21.33;;;19.60;;
2019;SDS011;1014;51.960;8.542;2023-01-13T14:19:21;20.67;;;19.50;;
2019;SDS011;1014;51.960;8.542;2023-01-13T14:21:50;23.90;;;22.40;;
2019;SDS011;1014;51.960;8.542;2023-01-13T14:24:17;25.07;;;22.93;;
2019;SDS011;1014;51.960;8.542;2023-01-13T14:26:46;25.23;;;23.60;;
2019;SDS011;1014;51.960;8.542;2023-01-13T14:29:17;26.13;;;23.60;;
2019;SDS011;1014;51.960;8.542;2023-01-13T14:31:46;23.37;;;21.53;;
2019;SDS011;1014;51.960;8.542;2023-01-13T14:34:14;26.20;;;22.87;;
2019;SDS011;1014;51.960;8.542;2023-01-13T14:36:41;24.73;;;22.87;;
2019;SDS011;1014;51.960;8.542;2023-01-13T14:39:24;22.73;;;21.37;;
2019;SDS011;1014;51.960;8.542;2023-01-13T14:41:52;22.20;;;20.70;;
2019;SDS011;1014;51.960;8.542;2023-01-13T14:44:21;22.40;;;20.90;;
2019;SDS011;1014;51.960;8.542;2023-01-13T14:46:50;23.43;;;21.37;;
2019;SDS011;1014;51.960;8.542;2023-01-13T14:49:21;20.87;;;19.77;;
2019;SDS011;1014;51.960;8.542;2023-01-13T14:51:49;22.73;;;20.90;;
2019;SDS011;1014;51.960;8.542;2023-01-13T14:57:05;22.93;;;20.40;;
2019;SDS011;1014;51.960;8.542;2023-01-13T14:59:41;22.43;;;20.87;;
2019;SDS011;1014;51.960;8.542;2023-01-13T15:04:56;22.70;;;20.80;;
2019;SDS011;1014;51.960;8.542;2023-01-13T15:07:24;20.20;;;19.00;;
2019;SDS011;1014;51.960;8.542;2023-01-13T15:09:52;20.37;;;19.03;;
2019;SDS011;1014;51.960;8.542;2023-01-13T15:12:21;21.33;;;19.83;;
2019;SDS011;1014;51.960;8.542;2023-01-13T15:14:49;21.13;;;19.53;;
2019;SDS011;1014;51.960;8.542;2023-01-13T15:17:16;20.67;;;19.57;;
2019;SDS011;1014;51.960;8.542;2023-01-13T15:19:44;19.90;;;18.23;;
2019;SDS011;1014;51.960;8.542;2023-01-13T15:22:12;20.55;;;19.20;;
2019;SDS011;1014;51.960;8.542;2023-01-13T15:24:39;20.15;;;19.05;;
2019;SDS011;1014;51.960;8.542;2023-01-13T15:27:12;20.90;;;19.60;;
2019;SDS011;1014;51.960;8.542;2023-01-13T15:29:40;19.73;;;18.53;;